Time;durP1;ratioP1;P1;durP2;ratioP2;P2;SDS_P1;SDS_P2;PMS_P1;PMS_P2;Temp;Humidity;BMP_temperature;BMP_pressure;BME280_temperature;BME280_humidity;BME280_pressure;Samples;Min_cycle;Max_cycle;Signal;HPM_P1;HPM_P2
2022/03/05 00:00:17;;;;;;;4.33;1.80;;;;;;;5.11;36.07;98970.88;5054339;28;20065;-64
2022/03/05 00:02:43;;;;;;;4.93;1.57;;;;;;;5.38;35.81;98993.00;5071026;28;20132;-64
2022/03/05 00:05:10;;;;;;;6.90;2.10;;;;;;;5.34;36.03;98996.88;5054716;28;20135;-67
2022/03/05 00:07:36;;;;;;;2.67;1.73;;;;;;;5.24;36.33;98978.47;5087846;28;20101;-64
2022/03/05 00:10:03;;;;;;;5.03;1.87;;;;;;;5.54;36.02;98990.59;5071419;28;20404;-64
2022/03/05 00:12:30;;;;;;;7.43;2.07;;;;;;;5.29;36.15;98965.69;5072229;28;20044;-64
2022/03/05 00:14:56;;;;;;;4.27;2.00;;;;;;;5.38;36.25;98988.56;5070998;28;20473;-64
2022/03/05 00:17:22;;;;;;;3.47;1.80;;;;;;;5.91;35.64;99000.25;5054118;28;20123;-64
2022/03/05 00:19:48;;;;;;;4.57;1.90;;;;;;;5.92;35.27;98983.44;5054173;28;20450;-65
2022/03/05 00:22:14;;;;;;;4.50;2.03;;;;;;;6.00;35.36;98988.81;5070609;28;20094;-65
2022/03/05 00:24:40;;;;;;;2.57;1.80;;;;;;;5.99;35.25;98976.63;5054280;28;20037;-65
2022/03/05 00:27:08;;;;;;;2.63;2.00;;;;;;;5.90;35.34;98980.16;5072223;28;20464;-65
2022/03/05 00:29:34;;;;;;;4.30;1.90;;;;;;;5.87;35.49;98980.44;5071953;28;20056;-69
2022/03/05 00:32:00;;;;;;;3.17;2.07;;;;;;;5.66;35.81;98979.75;5071016;28;20090;-65
2022/03/05 00:34:28;;;;;;;2.63;1.80;;;;;;;5.24;36.27;98939.00;5054276;28;20119;-65
2022/03/05 00:36:54;;;;;;;2.43;1.80;;;;;;;5.55;36.33;98979.13;5070601;28;20099;-64
2022/03/05 00:39:19;;;;;;;4.23;1.97;;;;;;;5.55;36.21;98982.56;5070292;28;20056;-64
2022/03/05 00:41:45;;;;;;;5.83;1.97;;;;;;;5.53;36.25;98981.88;5070327;28;20089;-64
2022/03/05 00:44:11;;;;;;;3.13;1.90;;;;;;;5.51;36.50;98981.19;5070199;28;20040;-64
2022/03/05 00:46:37;;;;;;;2.90;1.80;;;;;;;5.48;36.68;98992.00;5053503;28;20066;-65
2022/03/05 00:49:03;;;;;;;3.20;1.97;;;;;;;5.54;37.25;99001.13;5053829;28;20097;-64
2022/03/05 00:51:29;;;;;;;5.30;2.10;;;;;;;5.57;37.11;98990.31;5070105;28;20086;-64
2022/03/05 00:53:54;;;;;;;3.87;2.10;;;;;;;5.62;37.07;98994.19;5071258;28;20040;-64
2022/03/05 00:56:20;;;;;;;2.87;2.03;;;;;;;5.66;37.05;98995.56;5053356;28;20114;-64
2022/03/05 00:58:46;;;;;;;7.17;2.50;;;;;;;5.72;37.04;99000.25;5070025;28;20046;-64
2022/03/05 01:01:11;;;;;;;4.10;2.57;;;;;;;5.68;37.31;99000.69;5053274;28;20036;-66
2022/03/05 01:03:37;;;;;;;4.63;2.27;;;;;;;5.66;37.50;98994.75;5053001;28;20086;-65
2022/03/05 01:06:03;;;;;;;5.77;2.57;;;;;;;5.72;37.52;99002.88;5071399;28;20066;-64
2022/03/05 01:08:29;;;;;;;7.47;2.80;;;;;;;5.62;37.79;98994.19;5069619;28;20040;-65
2022/03/05 01:10:55;;;;;;;5.50;2.60;;;;;;;5.65;37.71;98986.00;5053175;28;20054;-65
2022/03/05 01:13:21;;;;;;;4.33;2.53;;;;;;;5.47;37.87;98974.56;5069223;28;20055;-65
2022/03/05 01:15:47;;;;;;;8.77;3.07;;;;;;;5.65;37.90;98998.34;5053005;28;20041;-64
2022/03/05 01:18:12;;;;;;;6.00;2.87;;;;;;;5.64;38.17;98991.41;5036382;28;20144;-66
2022/03/05 01:20:38;;;;;;;8.73;2.93;;;;;;;5.69;38.20;98987.38;5069617;28;20049;-65
2022/03/05 01:23:04;;;;;;;8.13;3.37;;;;;;;5.72;38.70;98987.09;5053343;28;20416;-64
2022/03/05 01:25:30;;;;;;;6.23;3.23;;;;;;;5.76;38.79;98985.00;5069874;28;20052;-64
2022/03/05 01:27:56;;;;;;;4.70;2.57;;;;;;;5.76;38.71;98977.09;5070151;28;20040;-63
2022/03/05 01:30:21;;;;;;;4.53;2.50;;;;;;;5.56;38.51;98967.59;5069567;28;20098;-64
2022/03/05 01:32:47;;;;;;;6.93;2.80;;;;;;;5.65;38.57;98990.44;5070363;28;20094;-64
2022/03/05 01:35:13;;;;;;;6.17;2.90;;;;;;;5.72;38.72;98983.66;5053535;28;20049;-64
2022/03/05 01:37:39;;;;;;;6.63;2.93;;;;;;;5.74;39.03;98979.03;5053117;28;20048;-65
2022/03/05 01:40:05;;;;;;;8.10;3.37;;;;;;;5.80;39.42;98984.56;5070367;28;20049;-64
2022/03/05 01:42:31;;;;;;;8.67;3.67;;;;;;;5.71;39.89;98988.06;5052780;28;20049;-65
2022/03/05 01:44:57;;;;;;;8.03;3.37;;;;;;;5.59;40.21;98981.31;5069590;28;20182;-65
2022/03/05 01:47:23;;;;;;;8.03;3.57;;;;;;;5.63;40.36;98990.59;5052616;28;20566;-64
2022/03/05 01:49:48;;;;;;;6.73;3.10;;;;;;;5.59;41.00;98994.47;5052449;28;20036;-64
2022/03/05 01:52:15;;;;;;;7.10;3.50;;;;;;;5.68;40.68;98996.25;5069390;28;20143;-64
2022/03/05 01:54:41;;;;;;;8.17;3.23;;;;;;;6.09;40.29;98998.50;5070291;28;20139;-64
2022/03/05 01:57:07;;;;;;;6.60;3.30;;;;;;;6.04;40.15;98999.91;5052765;28;20492;-64
2022/03/05 01:59:33;;;;;;;5.63;3.10;;;;;;;6.22;39.86;99001.66;5035763;28;20170;-65
2022/03/05 02:01:59;;;;;;;6.30;3.27;;;;;;;6.12;39.70;98994.75;5069031;28;20047;-64
2022/03/05 02:04:25;;;;;;;5.23;3.00;;;;;;;6.12;39.41;98992.94;5068792;28;20107;-65
2022/03/05 02:06:54;;;;;;;5.57;2.90;;;;;;;6.18;39.28;99010.81;5052774;28;20036;-65
2022/03/05 02:09:20;;;;;;;3.77;2.47;;;;;;;6.14;39.38;99006.81;5069004;28;20036;-64
2022/03/05 02:11:47;;;;;;;4.40;2.27;;;;;;;6.11;39.12;99006.25;5068986;28;20091;-65
2022/03/05 02:14:19;;;;;;;3.77;2.17;;;;;;;6.32;38.87;99012.97;5069124;28;20415;-65
2022/03/05 02:16:46;;;;;;;5.23;2.90;;;;;;;6.24;39.02;99009.41;5069025;28;20159;-63
2022/03/05 02:19:12;;;;;;;4.07;2.40;;;;;;;6.15;39.01;99011.09;5035691;28;20046;-65
2022/03/05 02:21:39;;;;;;;4.63;2.53;;;;;;;6.18;39.04;99018.72;5036270;28;20132;-64
2022/03/05 02:24:05;;;;;;;4.17;2.20;;;;;;;6.19;38.89;99017.75;5069930;28;20052;-64
2022/03/05 02:26:31;;;;;;;3.53;2.40;;;;;;;6.12;38.76;99003.47;5072986;28;20508;-65
2022/03/05 02:28:57;;;;;;;4.60;2.10;;;;;;;5.79;38.84;98985.56;5056087;28;20079;-64
2022/03/05 02:31:24;;;;;;;3.33;2.20;;;;;;;6.04;38.49;99024.44;5072910;28;20056;-64
2022/03/05 02:33:52;;;;;;;3.23;2.10;;;;;;;5.98;38.37;99016.31;5039476;28;20044;-64
2022/03/05 02:36:20;;;;;;;5.00;2.00;;;;;;;6.21;38.19;99028.16;5056572;28;20358;-65
2022/03/05 02:38:46;;;;;;;6.27;2.10;;;;;;;6.07;38.05;99016.28;5022902;28;20037;-65
2022/03/05 02:41:11;;;;;;;3.20;2.03;;;;;;;5.87;37.86;98983.06;5056092;28;20393;-68
2022/03/05 02:43:38;;;;;;;2.27;1.80;;;;;;;6.08;37.02;99012.66;5052303;28;20083;-65
2022/03/05 02:46:04;;;;;;;3.97;1.90;;;;;;;6.03;37.22;99014.91;5071224;28;20090;-64
2022/03/05 02:48:29;;;;;;;2.83;2.03;;;;;;;5.97;37.23;99014.63;5071303;28;20597;-65
2022/03/05 02:50:55;;;;;;;3.70;1.50;;;;;;;5.94;36.79;99012.28;5052842;28;20052;-65
2022/03/05 02:53:21;;;;;;;4.93;1.60;;;;;;;5.95;36.62;99009.50;5069030;28;20044;-66
2022/03/05 02:55:47;;;;;;;2.97;1.30;;;;;;;5.93;36.44;99008.84;5052439;28;20703;-65
2022/03/05 02:58:13;;;;;;;1.77;1.50;;;;;;;5.98;36.31;99013.69;5070616;28;20614;-66
2022/03/05 03:00:39;;;;;;;5.03;1.30;;;;;;;5.64;36.44;98983.53;5073478;28;20044;-65
2022/03/05 03:03:05;;;;;;;1.53;1.30;;;;;;;5.83;36.43;99021.19;5071943;28;20131;-64
2022/03/05 03:05:31;;;;;;;2.40;1.40;;;;;;;5.68;36.59;98993.63;5055241;28;20189;-64
2022/03/05 03:07:57;;;;;;;1.87;1.40;;;;;;;5.88;36.63;99016.34;5055254;28;20357;-64
2022/03/05 03:10:22;;;;;;;3.67;1.57;;;;;;;5.86;36.73;99017.47;5071958;28;20045;-65
2022/03/05 03:12:48;;;;;;;2.37;1.40;;;;;;;5.83;36.82;99025.63;5038698;28;20036;-64
2022/03/05 03:15:15;;;;;;;1.73;1.40;;;;;;;5.99;36.71;99016.16;5071887;28;20040;-65
2022/03/05 03:17:46;;;;;;;1.67;1.50;;;;;;;6.20;36.96;99021.19;5072163;28;20117;-64
2022/03/05 03:20:16;;;;;;;2.08;1.75;;;;;;;6.21;36.82;99025.53;5073138;28;20099;-64
2022/03/05 03:22:41;;;;;;;2.20;1.60;;;;;;;5.86;37.09;98989.28;5072053;28;20109;-64
2022/03/05 03:25:08;;;;;;;2.50;1.60;;;;;;;6.07;37.28;99021.56;5071794;28;20490;-65
2022/03/05 03:27:34;;;;;;;3.03;1.57;;;;;;;5.99;37.71;99024.06;5055041;28;20040;-64
2022/03/05 03:30:00;;;;;;;3.70;1.67;;;;;;;5.89;37.91;99018.00;5038610;28;20106;-64
2022/03/05 03:32:26;;;;;;;4.77;1.70;;;;;;;5.95;38.11;99027.94;5037954;28;20041;-64
2022/03/05 03:34:52;;;;;;;2.90;1.87;;;;;;;6.05;38.47;99031.41;5037723;28;20037;-64
2022/03/05 03:37:17;;;;;;;2.67;1.77;;;;;;;6.02;38.77;99031.69;5054789;28;20135;-65
2022/03/05 03:39:43;;;;;;;2.53;1.73;;;;;;;6.10;38.81;99042.34;5071497;28;20058;-64
2022/03/05 03:42:09;;;;;;;3.83;2.10;;;;;;;6.02;39.23;99031.69;5054781;28;20048;-64
2022/03/05 03:44:35;;;;;;;2.13;1.80;;;;;;;5.99;39.35;99044.31;5054419;28;20301;-64
2022/03/05 03:47:03;;;;;;;1.97;1.70;;;;;;;6.09;39.69;99045.94;5071126;28;20040;-64
2022/03/05 03:49:28;;;;;;;5.00;1.90;;;;;;;6.01;39.84;99037.91;5037658;28;20155;-64
2022/03/05 03:51:54;;;;;;;2.83;2.10;;;;;;;6.01;39.70;99039.75;5071115;28;20072;-63
2022/03/05 03:54:20;;;;;;;1.80;1.67;;;;;;;5.98;39.45;99035.56;5037833;28;20404;-64
2022/03/05 03:56:46;;;;;;;2.03;1.70;;;;;;;5.96;39.50;99049.88;5037779;28;20051;-68
2022/03/05 03:59:12;;;;;;;4.87;1.77;;;;;;;5.90;39.44;99042.53;5054518;28;20060;-64
2022/03/05 04:01:38;;;;;;;8.23;1.90;;;;;;;5.93;39.44;99037.84;5070769;28;20504;-63
2022/03/05 04:04:04;;;;;;;4.23;2.10;;;;;;;6.02;38.92;99044.88;5070831;28;20067;-64
2022/03/05 04:08:41;;;;;;;3.13;1.40;;;;;;;5.87;38.78;99053.38;5037362;28;20036;-64
2022/03/05 04:09:16;;;;;;;2.43;1.90;;;;;;;5.84;38.75;99051.03;5057190;28;20135;-64
2022/03/05 04:11:42;;;;;;;2.53;1.60;;;;;;;5.86;38.86;99041.19;5070946;28;20037;-64
2022/03/05 04:14:08;;;;;;;3.27;1.80;;;;;;;5.86;38.93;99057.81;5070602;28;20063;-65
2022/03/05 04:16:33;;;;;;;2.00;1.60;;;;;;;5.79;38.94;99056.69;5070326;28;20500;-64
2022/03/05 04:18:59;;;;;;;2.57;1.80;;;;;;;5.85;38.39;99061.44;5053916;28;20041;-64
2022/03/05 04:21:25;;;;;;;2.67;1.90;;;;;;;5.82;38.40;99048.53;5036966;28;20412;-66
2022/03/05 04:23:51;;;;;;;2.10;1.63;;;;;;;5.77;37.99;99056.00;5037333;28;20097;-64
2022/03/05 04:26:16;;;;;;;3.53;2.33;;;;;;;5.70;38.09;99041.75;5053776;28;20139;-64
2022/03/05 04:28:42;;;;;;;3.43;1.70;;;;;;;5.63;38.18;99060.88;5020617;28;20074;-64
2022/03/05 04:31:08;;;;;;;2.70;1.73;;;;;;;5.66;38.43;99065.88;5069975;28;20036;-65
2022/03/05 04:33:34;;;;;;;1.83;1.30;;;;;;;5.61;38.09;99039.97;5036423;28;20075;-64
2022/03/05 04:36:02;;;;;;;5.40;2.20;;;;;;;5.64;38.13;99071.28;5053364;28;20044;-64
2022/03/05 04:38:27;;;;;;;3.67;1.90;;;;;;;5.80;38.11;99081.22;5082689;28;20129;-65
2022/03/05 04:40:54;;;;;;;3.83;2.17;;;;;;;5.86;38.13;99076.25;5090481;28;20147;-64
2022/03/05 04:43:19;;;;;;;6.67;2.10;;;;;;;5.88;38.58;99090.13;5089799;28;20185;-66
2022/03/05 04:45:45;;;;;;;4.63;1.80;;;;;;;5.93;38.66;99087.91;5056149;28;20407;-65
2022/03/05 04:48:11;;;;;;;5.27;1.90;;;;;;;5.71;38.88;99056.56;5070779;28;20036;-66
2022/03/05 04:50:37;;;;;;;4.10;1.73;;;;;;;5.85;39.24;99097.47;5088531;28;20039;-70
2022/03/05 04:53:03;;;;;;;7.20;1.73;;;;;;;5.84;39.21;99082.66;5089321;28;20036;-66
2022/03/05 04:55:29;;;;;;;5.57;2.10;;;;;;;5.86;39.17;99099.97;5039126;28;20070;-66
2022/03/05 04:57:54;;;;;;;7.33;2.00;;;;;;;5.91;39.16;99099.53;5055482;28;20093;-69
2022/03/05 05:00:20;;;;;;;3.30;1.70;;;;;;;5.92;39.05;99111.75;5072801;28;20482;-66
2022/03/05 05:03:02;;;;;;;6.83;1.50;;;;;;;6.15;39.10;99102.56;5073480;28;20466;-67
2022/03/05 05:05:28;;;;;;;2.10;1.60;;;;;;;5.70;39.63;99081.25;5068839;28;20057;-68
2022/03/05 05:07:53;;;;;;;4.00;1.63;;;;;;;5.74;40.01;99106.34;5052561;28;20472;-70
2022/03/05 05:10:19;;;;;;;5.03;1.90;;;;;;;5.20;40.67;99082.38;5052504;28;20046;-74
2022/03/05 05:12:45;;;;;;;3.20;1.50;;;;;;;5.33;41.14;99111.06;5067918;28;20040;-68
2022/03/05 05:15:11;;;;;;;4.63;1.97;;;;;;;5.28;41.59;99108.00;5052689;28;20526;-67
2022/03/05 05:17:37;;;;;;;3.70;1.63;;;;;;;5.03;41.74;99039.16;5033807;28;20139;-70
2022/03/05 05:20:05;;;;;;;7.47;1.90;;;;;;;5.58;41.71;99118.41;5049884;28;20047;-66
2022/03/05 05:22:32;;;;;;;3.20;1.60;;;;;;;5.50;42.15;99119.13;5067720;28;20036;-68
2022/03/05 05:24:59;;;;;;;7.30;2.07;;;;;;;5.63;41.82;99119.66;5067658;28;20044;-66
2022/03/05 05:27:25;;;;;;;6.80;2.00;;;;;;;5.58;41.88;99124.50;5033768;28;20146;-68
2022/03/05 05:29:51;;;;;;;3.33;2.00;;;;;;;5.50;41.73;99103.31;5033463;28;20127;-69
2022/03/05 05:32:17;;;;;;;4.43;2.43;;;;;;;5.72;41.83;99126.72;5017664;28;20043;-66
2022/03/05 05:34:44;;;;;;;3.37;1.80;;;;;;;5.75;41.68;99120.34;5035221;28;20040;-68
2022/03/05 05:37:10;;;;;;;5.83;2.10;;;;;;;5.63;41.90;99113.56;5035912;28;20044;-65
2022/03/05 05:39:37;;;;;;;5.40;2.00;;;;;;;5.73;41.27;99123.13;5051989;28;20048;-66
2022/03/05 05:42:03;;;;;;;4.20;1.80;;;;;;;5.84;40.88;99128.28;5069089;28;20040;-65
2022/03/05 05:44:29;;;;;;;1.90;1.60;;;;;;;5.69;40.80;99131.44;5052224;28;20416;-65
2022/03/05 05:46:55;;;;;;;1.77;1.67;;;;;;;5.67;40.64;99122.84;5070194;28;20055;-66
2022/03/05 05:49:20;;;;;;;3.43;2.07;;;;;;;5.71;39.54;99140.88;5052253;28;20393;-65
2022/03/05 05:51:46;;;;;;;2.03;1.47;;;;;;;5.50;39.44;99129.66;5035605;28;20064;-65
2022/03/05 05:54:12;;;;;;;6.67;1.73;;;;;;;5.36;40.09;99124.78;5036272;28;20082;-66
2022/03/05 05:56:38;;;;;;;4.17;1.73;;;;;;;5.51;40.08;99147.09;5052861;28;20051;-66
2022/03/05 05:59:05;;;;;;;2.30;1.80;;;;;;;5.57;39.42;99138.66;5068870;28;20504;-65
2022/03/05 06:01:31;;;;;;;4.50;1.67;;;;;;;5.41;39.05;99142.81;5069408;28;20127;-65
2022/03/05 06:03:59;;;;;;;3.20;1.70;;;;;;;5.38;38.83;99137.81;5020174;28;20096;-67
2022/03/05 06:06:25;;;;;;;1.93;1.60;;;;;;;5.42;38.38;99142.66;5051529;28;20087;-69
2022/03/05 06:08:52;;;;;;;3.80;1.40;;;;;;;5.52;38.48;99137.41;5035324;28;20074;-67
2022/03/05 06:11:18;;;;;;;4.70;1.43;;;;;;;5.36;38.49;99151.13;5052389;28;20049;-68
2022/03/05 06:13:44;;;;;;;1.43;1.33;;;;;;;5.24;38.81;99139.06;5018432;28;20105;-69
2022/03/05 06:16:12;;;;;;;3.00;1.80;;;;;;;5.22;38.81;99135.72;5052439;28;20037;-67
2022/03/05 06:18:38;;;;;;;2.40;1.73;;;;;;;5.33;38.91;99153.19;5035192;28;20475;-70
2022/03/05 06:21:05;;;;;;;3.87;1.73;;;;;;;5.14;39.40;99123.25;5035288;28;20052;-68
2022/03/05 06:23:32;;;;;;;2.67;1.60;;;;;;;5.46;39.27;99165.13;5035470;28;20385;-68
2022/03/05 06:25:58;;;;;;;2.83;1.67;;;;;;;5.34;38.93;99152.22;5068513;28;20051;-67
2022/03/05 06:28:24;;;;;;;2.00;1.60;;;;;;;5.09;38.81;99119.34;5034715;28;20565;-71
2022/03/05 06:30:52;;;;;;;5.90;1.63;;;;;;;5.30;38.22;99161.34;5018449;28;20044;-66
2022/03/05 06:33:19;;;;;;;2.73;1.57;;;;;;;5.40;38.13;99164.84;5051721;28;20046;-67
2022/03/05 06:35:46;;;;;;;1.63;1.50;;;;;;;5.36;37.63;99155.53;5051969;28;20055;-66
2022/03/05 06:38:14;;;;;;;2.07;1.60;;;;;;;5.03;37.28;99117.25;5051696;28;20496;-67
2022/03/05 06:40:40;;;;;;;2.13;1.70;;;;;;;5.18;38.03;99165.94;5068089;28;20052;-66
2022/03/05 06:43:06;;;;;;;2.03;1.60;;;;;;;5.23;36.91;99169.81;5018776;28;20052;-66
2022/03/05 06:45:32;;;;;;;3.37;1.60;;;;;;;5.42;36.38;99174.28;5051696;28;20056;-68
2022/03/05 06:47:58;;;;;;;3.10;1.60;;;;;;;5.47;36.39;99168.59;5018769;28;20033;-67
2022/03/05 06:50:24;;;;;;;6.17;1.80;;;;;;;5.65;36.36;99167.78;5051856;28;20047;-67
2022/03/05 06:52:50;;;;;;;2.47;1.63;;;;;;;5.71;36.38;99159.31;5051493;28;20143;-67
2022/03/05 06:55:16;;;;;;;4.17;1.60;;;;;;;5.80;36.13;99162.91;5069882;28;20186;-67
2022/03/05 06:57:43;;;;;;;3.17;1.77;;;;;;;6.03;36.57;99174.84;5018917;28;20130;-67
2022/03/05 07:00:11;;;;;;;4.70;1.80;;;;;;;6.20;36.67;99189.94;5068435;28;20040;-66
2022/03/05 07:02:37;;;;;;;10.87;2.30;;;;;;;6.05;37.00;99180.81;5018588;28;20041;-69
2022/03/05 07:05:03;;;;;;;3.27;2.20;;;;;;;6.14;36.96;99172.91;5035118;28;20067;-66
2022/03/05 07:07:29;;;;;;;4.83;2.70;;;;;;;6.16;37.31;99165.69;5051657;28;20080;-67
2022/03/05 07:09:55;;;;;;;3.83;2.40;;;;;;;6.39;36.59;99168.81;5053626;28;20048;-71
2022/03/05 07:12:22;;;;;;;8.40;2.17;;;;;;;6.59;36.07;99179.19;5042887;28;20043;-67
2022/03/05 07:14:50;;;;;;;3.57;2.00;;;;;;;7.03;35.72;99189.97;5076689;28;20072;-67
2022/03/05 07:17:16;;;;;;;4.03;2.10;;;;;;;6.92;34.95;99183.03;5080401;28;20040;-69
2022/03/05 07:19:42;;;;;;;5.43;2.00;;;;;;;6.98;34.90;99182.47;5064229;28;20067;-67
2022/03/05 07:22:09;;;;;;;5.17;2.40;;;;;;;7.13;34.93;99188.09;5080623;28;20040;-66
2022/03/05 07:24:34;;;;;;;6.30;2.00;;;;;;;7.11;34.75;99193.53;5082271;28;20032;-70
2022/03/05 07:27:00;;;;;;;3.53;2.23;;;;;;;6.97;34.47;99182.59;5025245;28;20063;-72
2022/03/05 07:29:28;;;;;;;6.33;3.33;;;;;;;6.97;34.67;99186.09;5042891;28;20119;-71
2022/03/05 07:31:54;;;;;;;7.47;2.43;;;;;;;6.96;34.81;99176.50;5047411;28;20040;-69
2022/03/05 07:34:20;;;;;;;4.20;2.07;;;;;;;7.39;34.31;99165.28;5054259;28;20411;-68
2022/03/05 07:36:46;;;;;;;4.40;2.40;;;;;;;8.80;32.49;99187.91;5035828;28;20401;-68
2022/03/05 07:39:12;;;;;;;9.02;2.45;;;;;;;11.92;28.14;99179.88;5078637;28;20044;-69
2022/03/05 07:41:38;;;;;;;6.55;1.90;;;;;;;15.39;23.37;99186.31;5061555;28;20036;-68
2022/03/05 07:44:05;;;;;;;3.40;1.60;;;;;;;18.40;19.99;99183.78;5030590;28;20345;-71
2022/03/05 07:46:32;;;;;;;3.33;1.73;;;;;;;21.18;16.55;99186.78;5029517;28;20045;-69
2022/03/05 07:48:58;;;;;;;6.32;1.90;;;;;;;22.88;14.41;99181.06;5059090;28;20036;-70
2022/03/05 07:51:24;;;;;;;6.25;1.80;;;;;;;22.51;14.35;99174.53;5043658;28;20041;-69
2022/03/05 07:53:50;;;;;;;8.48;1.90;;;;;;;20.97;15.08;99167.66;5028648;28;20416;-69
2022/03/05 07:56:16;;;;;;;6.20;2.72;;;;;;;19.13;16.41;99171.31;5047236;28;20044;-69
2022/03/05 07:58:42;;;;;;;11.13;3.38;;;;;;;17.70;17.63;99161.69;5078849;28;20468;-68
2022/03/05 08:01:08;;;;;;;7.75;4.50;;;;;;;16.28;18.97;99135.03;5078833;28;20127;-70
2022/03/05 08:03:33;;;;;;;6.78;3.15;;;;;;;15.68;19.68;99157.41;5074895;28;20416;-71
2022/03/05 08:06:00;;;;;;;7.40;3.85;;;;;;;15.07;20.64;99161.03;5037138;28;20045;-68
2022/03/05 08:08:25;;;;;;;7.57;2.70;;;;;;;14.03;21.33;99125.53;5053567;28;20041;-74
2022/03/05 08:10:51;;;;;;;4.85;2.22;;;;;;;13.51;22.16;99176.53;5020496;28;20098;-67
2022/03/05 08:13:17;;;;;;;5.38;2.50;;;;;;;12.73;23.02;99154.97;5040905;28;20059;-70
2022/03/05 08:15:43;;;;;;;7.15;2.33;;;;;;;12.30;23.76;99173.56;5070734;28;20134;-68
2022/03/05 08:18:09;;;;;;;6.82;2.67;;;;;;;11.60;24.34;99143.63;5079571;28;20128;-69
2022/03/05 08:20:35;;;;;;;7.22;2.35;;;;;;;11.04;24.89;99147.41;5044133;28;20036;-69
2022/03/05 08:23:01;;;;;;;6.70;2.40;;;;;;;10.44;25.18;99119.72;5062854;28;20036;-67
2022/03/05 08:25:27;;;;;;;5.00;2.38;;;;;;;10.55;25.63;99169.03;5028821;28;20096;-67
2022/03/05 08:27:53;;;;;;;4.68;2.70;;;;;;;10.16;26.10;99171.56;5061394;28;21484;-70
2022/03/05 08:30:20;;;;;;;9.90;2.85;;;;;;;9.75;26.43;99136.19;5042113;28;20040;-66
2022/03/05 08:32:46;;;;;;;8.27;3.30;;;;;;;9.72;27.03;99168.34;5065264;28;20044;-68
2022/03/05 08:35:13;;;;;;;6.50;2.90;;;;;;;9.75;27.08;99178.63;5026723;28;20047;-69
2022/03/05 08:37:40;;;;;;;6.95;2.20;;;;;;;9.72;27.24;99173.66;5058417;28;20122;-68
2022/03/05 08:40:08;;;;;;;12.68;2.67;;;;;;;9.50;27.76;99174.25;5080598;28;20040;-74
2022/03/05 08:42:34;;;;;;;7.13;2.45;;;;;;;9.23;27.96;99169.22;5060623;28;20129;-71
2022/03/05 08:45:02;;;;;;;6.38;2.72;;;;;;;10.54;26.67;99178.81;5063059;28;20117;-67
2022/03/05 08:47:29;;;;;;;13.57;2.42;;;;;;;11.54;25.12;99184.22;5080027;28;20040;-70
2022/03/05 08:49:55;;;;;;;3.75;2.00;;;;;;;13.59;22.41;99171.91;5028262;28;20036;-71
2022/03/05 08:52:21;;;;;;;4.72;2.10;;;;;;;16.45;19.52;99177.28;5079189;28;20050;-69
2022/03/05 08:54:47;;;;;;;10.27;1.95;;;;;;;19.69;16.04;99188.09;5044967;28;20401;-68
2022/03/05 08:57:12;;;;;;;3.33;1.80;;;;;;;22.78;13.70;99189.06;5027073;28;20048;-69
2022/03/05 08:59:38;;;;;;;7.65;1.95;;;;;;;24.78;11.97;99193.38;5062010;28;20508;-71
2022/03/05 09:02:05;;;;;;;9.55;2.25;;;;;;;24.53;11.95;99185.00;5048433;28;20078;-74
2022/03/05 09:04:31;;;;;;;7.85;2.20;;;;;;;22.37;12.64;99181.28;5079214;28;20071;-69
2022/03/05 09:06:57;;;;;;;7.43;2.10;;;;;;;20.41;14.21;99183.53;5080242;28;20044;-69
2022/03/05 09:09:23;;;;;;;5.60;2.67;;;;;;;18.73;15.26;99175.44;5059723;28;20300;-70
2022/03/05 09:11:49;;;;;;;6.20;2.67;;;;;;;17.41;16.72;99189.91;5048099;28;20036;-70
2022/03/05 09:14:16;;;;;;;7.38;2.35;;;;;;;16.48;17.58;99176.06;5045787;28;20047;-71
2022/03/05 09:16:42;;;;;;;14.70;2.30;;;;;;;16.06;17.99;99189.81;5053667;28;20134;-68
2022/03/05 09:19:08;;;;;;;9.20;2.00;;;;;;;15.71;18.33;99159.69;5039397;28;20051;-69
2022/03/05 09:21:35;;;;;;;7.90;2.40;;;;;;;15.08;18.57;99127.91;5015391;28;20037;-68
2022/03/05 09:24:04;;;;;;;7.82;2.25;;;;;;;14.73;19.41;99180.56;5049288;28;20098;-69
2022/03/05 09:26:30;;;;;;;3.67;2.20;;;;;;;14.05;20.14;99184.91;5015215;28;20543;-68
2022/03/05 09:28:56;;;;;;;3.80;2.00;;;;;;;13.68;20.54;99203.81;5066084;28;20067;-75
2022/03/05 09:31:22;;;;;;;6.82;2.20;;;;;;;14.06;20.08;99178.53;5056143;28;20039;-70
2022/03/05 09:33:48;;;;;;;6.40;1.98;;;;;;;16.37;18.01;99198.94;5054929;28;20044;-69
2022/03/05 09:36:13;;;;;;;9.88;1.95;;;;;;;17.51;17.09;99219.03;5032699;28;20067;-70
2022/03/05 09:38:39;;;;;;;6.50;1.90;;;;;;;17.26;16.85;99221.56;5014651;28;20055;-70
2022/03/05 09:41:07;;;;;;;3.83;1.85;;;;;;;16.16;17.42;99214.38;4999407;28;20109;-68
2022/03/05 09:43:34;;;;;;;6.47;1.98;;;;;;;14.91;19.02;99186.22;5048434;28;20544;-71
2022/03/05 09:46:00;;;;;;;7.60;2.28;;;;;;;13.79;20.02;99214.84;5032228;28;20044;-72
2022/03/05 09:48:27;;;;;;;9.65;2.10;;;;;;;13.14;21.29;99219.34;5015870;28;20076;-69
2022/03/05 09:50:53;;;;;;;6.85;2.35;;;;;;;12.49;22.33;99226.31;5034023;28;20037;-72
2022/03/05 09:53:21;;;;;;;4.47;2.05;;;;;;;12.42;22.46;99220.06;5064919;28;20068;-71
2022/03/05 09:55:50;;;;;;;5.88;2.65;;;;;;;12.45;22.50;99217.03;5032036;28;20139;-71
2022/03/05 09:58:16;;;;;;;5.93;1.80;;;;;;;12.03;22.91;99230.84;5031946;28;20053;-71
2022/03/05 10:00:46;;;;;;;8.43;2.70;;;;;;;11.83;23.25;99217.16;5015385;28;20051;-72
2022/03/05 10:03:13;;;;;;;5.45;2.70;;;;;;;11.60;23.60;99215.44;5047920;28;20044;-75
2022/03/05 10:05:39;;;;;;;9.43;2.35;;;;;;;11.39;23.96;99228.53;5016029;28;20049;-70
2022/03/05 10:08:12;;;;;;;4.18;2.00;;;;;;;11.50;24.27;99225.47;5049226;28;20056;-70
2022/03/05 10:10:45;;;;;;;5.65;2.70;;;;;;;11.22;24.33;99226.94;5049224;28;20041;-70
2022/03/05 10:13:23;;;;;;;3.47;1.85;;;;;;;11.08;24.49;99223.16;5014170;28;20041;-70
2022/03/05 10:15:54;;;;;;;7.32;1.88;;;;;;;10.70;24.82;99231.06;5047974;28;20082;-70
2022/03/05 10:18:30;;;;;;;5.47;1.83;;;;;;;10.75;25.13;99224.22;5064479;28;20045;-70
2022/03/05 10:20:58;;;;;;;5.70;2.33;;;;;;;10.65;25.19;99238.69;5051446;28;20045;-69
2022/03/05 10:23:24;;;;;;;5.75;1.90;;;;;;;10.39;25.68;99227.44;5049128;28;20411;-70
2022/03/05 10:25:53;;;;;;;10.13;2.00;;;;;;;10.57;25.74;99230.72;5048675;28;20055;-71
2022/03/05 10:28:26;;;;;;;7.13;1.80;;;;;;;10.42;25.75;99238.56;5048206;28;20049;-71
2022/03/05 10:30:54;;;;;;;7.30;1.85;;;;;;;10.21;26.29;99225.78;5042583;28;20037;-69
2022/03/05 10:33:34;;;;;;;6.47;1.63;;;;;;;10.35;26.21;99242.03;5031944;28;20511;-71
2022/03/05 10:36:05;;;;;;;5.45;1.70;;;;;;;10.59;25.73;99236.72;5049035;28;20053;-71
2022/03/05 10:38:52;;;;;;;4.93;1.88;;;;;;;10.89;25.31;99225.34;5048002;28;20127;-71
2022/03/05 10:41:31;;;;;;;10.75;1.63;;;;;;;10.68;25.55;99236.53;5031881;28;20152;-71
2022/03/05 10:44:04;;;;;;;7.60;1.90;;;;;;;10.64;25.82;99245.00;5031594;28;20045;-71
2022/03/05 10:46:40;;;;;;;3.80;1.67;;;;;;;10.42;26.21;99229.75;5051108;28;20102;-70
2022/03/05 10:49:14;;;;;;;6.97;2.17;;;;;;;10.17;26.50;99231.56;5034979;28;20199;-70
2022/03/05 10:51:40;;;;;;;7.00;1.77;;;;;;;9.92;26.90;99238.66;5052426;28;20051;-70
2022/03/05 10:54:06;;;;;;;3.55;1.88;;;;;;;9.91;26.90;99233.50;5035057;28;20033;-70
2022/03/05 10:56:33;;;;;;;3.72;1.98;;;;;;;10.08;26.98;99251.97;5051964;28;20413;-71
2022/03/05 10:59:05;;;;;;;8.88;2.10;;;;;;;10.14;26.85;99243.38;5052367;28;20047;-69
2022/03/05 11:01:34;;;;;;;3.85;1.73;;;;;;;9.85;27.30;99240.31;5072111;28;20044;-69
2022/03/05 11:04:00;;;;;;;3.88;2.50;;;;;;;9.76;27.45;99243.91;5054828;28;20086;-69
2022/03/05 11:06:27;;;;;;;3.55;1.95;;;;;;;9.78;27.39;99251.69;5056070;28;20044;-70
2022/03/05 11:08:53;;;;;;;6.13;2.15;;;;;;;9.92;27.38;99251.91;5072702;28;20136;-69
2022/03/05 11:11:20;;;;;;;3.80;1.98;;;;;;;9.97;27.29;99246.97;5054016;28;20098;-68
2022/03/05 11:13:46;;;;;;;6.50;2.05;;;;;;;9.88;27.21;99244.44;5070308;28;20098;-69
2022/03/05 11:16:12;;;;;;;5.32;1.88;;;;;;;9.85;27.50;99255.38;5054705;28;20496;-70
2022/03/05 11:18:39;;;;;;;4.78;2.30;;;;;;;9.74;27.44;99240.59;5037551;28;20052;-70
2022/03/05 11:21:08;;;;;;;2.72;1.90;;;;;;;9.67;27.54;99236.13;5020356;28;20564;-69
2022/03/05 11:23:36;;;;;;;6.20;1.90;;;;;;;9.61;27.60;99226.16;5020694;28;20542;-69
2022/03/05 11:26:11;;;;;;;5.35;1.80;;;;;;;9.70;27.86;99249.88;5021814;28;20070;-69
2022/03/05 11:28:40;;;;;;;8.32;2.03;;;;;;;9.62;27.75;99264.94;5054187;28;20106;-70
2022/03/05 11:31:16;;;;;;;4.38;2.38;;;;;;;9.60;27.89;99262.44;5019743;28;20042;-70
2022/03/05 11:33:44;;;;;;;3.97;2.42;;;;;;;9.19;28.16;99251.84;5070984;28;20047;-70
2022/03/05 11:36:41;;;;;;;4.18;2.25;;;;;;;9.35;28.20;99251.91;5056011;28;20059;-70